createdAt,value
2022-11-10T00:01:27.404Z,100.00
2022-11-10T00:03:58.120Z,100.00
2022-11-10T00:06:26.420Z,100.00
2022-11-10T00:08:54.619Z,100.00
2022-11-10T00:11:24.209Z,100.00
2022-11-10T00:14:09.738Z,100.00
2022-11-10T00:16:54.947Z,100.00
2022-11-10T00:19:23.191Z,100.00
2022-11-10T00:21:51.355Z,100.00
2022-11-10T00:24:19.480Z,100.00
2022-11-10T00:26:49.242Z,100.00
2022-11-10T00:29:17.620Z,100.00
2022-11-10T00:31:45.872Z,100.00
2022-11-10T00:34:15.902Z,100.00
2022-11-10T00:36:44.401Z,100.00
2022-11-10T00:39:13.446Z,100.00
2022-11-10T00:41:41.536Z,100.00
2022-11-10T00:44:10.989Z,100.00
2022-11-10T00:46:39.168Z,100.00
2022-11-10T00:49:07.503Z,100.00
2022-11-10T00:51:35.790Z,100.00
2022-11-10T00:54:04.073Z,100.00
2022-11-10T00:56:32.171Z,100.00
2022-11-10T00:59:00.250Z,100.00
2022-11-10T01:01:29.806Z,100.00
2022-11-10T01:03:58.039Z,100.00
2022-11-10T01:06:26.104Z,100.00
2022-11-10T01:08:54.256Z,100.00
2022-11-10T01:11:24.407Z,100.00
2022-11-10T01:13:54.353Z,100.00
2022-11-10T01:16:24.783Z,100.00
2022-11-10T01:18:55.807Z,100.00
2022-11-10T01:21:24.619Z,100.00
2022-11-10T01:23:53.139Z,100.00
2022-11-10T01:26:21.616Z,100.00
2022-11-10T01:28:50.200Z,100.00
2022-11-10T01:31:20.384Z,100.00
2022-11-10T01:33:48.593Z,100.00
2022-11-10T01:36:18.154Z,100.00
2022-11-10T01:38:46.392Z,100.00
2022-11-10T01:41:15.588Z,100.00
2022-11-10T01:43:44.038Z,100.00
2022-11-10T01:46:13.456Z,100.00
2022-11-10T01:48:47.180Z,100.00
2022-11-10T01:51:22.059Z,100.00
2022-11-10T01:53:55.185Z,100.00
2022-11-10T01:56:24.938Z,100.00
2022-11-10T01:58:58.088Z,100.00
2022-11-10T02:01:27.160Z,100.00
2022-11-10T02:03:58.513Z,100.00
2022-11-10T02:06:31.350Z,100.00
2022-11-10T02:08:59.695Z,100.00
2022-11-10T02:11:28.665Z,100.00
2022-11-10T02:13:57.133Z,100.00
2022-11-10T02:16:25.333Z,100.00
2022-11-10T02:18:53.659Z,100.00
2022-11-10T02:21:23.270Z,100.00
2022-11-10T02:23:52.549Z,100.00
2022-11-10T02:26:24.353Z,100.00
2022-11-10T02:28:52.676Z,100.00
2022-11-10T02:31:20.836Z,100.00
2022-11-10T02:33:48.923Z,100.00
2022-11-10T02:36:17.010Z,100.00
2022-11-10T02:38:46.507Z,100.00
2022-11-10T02:41:14.652Z,100.00
2022-11-10T02:43:42.859Z,100.00
2022-11-10T02:46:11.074Z,100.00
2022-11-10T02:48:39.125Z,100.00
2022-11-10T02:51:07.595Z,100.00
2022-11-10T02:53:35.799Z,100.00
2022-11-10T02:56:05.528Z,100.00
2022-11-10T02:58:33.700Z,100.00
2022-11-10T03:01:04.573Z,100.00
2022-11-10T03:03:32.924Z,100.00
2022-11-10T03:06:01.411Z,100.00
2022-11-10T03:08:29.522Z,100.00
2022-11-10T03:10:58.349Z,100.00
2022-11-10T03:13:40.325Z,100.00
2022-11-10T03:16:16.031Z,100.00
2022-11-10T03:18:44.362Z,100.00
2022-11-10T03:21:12.398Z,100.00
2022-11-10T03:23:40.627Z,100.00
2022-11-10T03:26:09.181Z,100.00
2022-11-10T03:28:38.726Z,100.00
2022-11-10T03:31:07.247Z,100.00
2022-11-10T03:33:35.673Z,100.00
2022-11-10T03:36:03.811Z,100.00
2022-11-10T03:38:31.883Z,100.00
2022-11-10T03:43:49.762Z,100.00
2022-11-10T03:46:18.486Z,100.00
2022-11-10T03:48:52.857Z,100.00
2022-11-10T03:51:21.835Z,100.00
2022-11-10T03:53:49.999Z,100.00
2022-11-10T03:56:18.385Z,100.00
2022-11-10T03:58:46.688Z,100.00
2022-11-10T04:01:16.222Z,100.00
2022-11-10T04:03:50.193Z,100.00
2022-11-10T04:06:37.915Z,100.00
2022-11-10T04:09:08.096Z,100.00
2022-11-10T04:11:53.685Z,100.00
2022-11-10T04:14:39.294Z,100.00
2022-11-10T04:17:09.770Z,100.00
2022-11-10T04:19:37.874Z,100.00
2022-11-10T04:22:05.959Z,100.00
2022-11-10T04:24:34.275Z,100.00
2022-11-10T04:27:02.368Z,100.00
2022-11-10T04:29:30.446Z,100.00
2022-11-10T04:31:58.575Z,100.00
2022-11-10T04:34:28.256Z,100.00
2022-11-10T04:36:56.363Z,100.00
2022-11-10T04:39:24.447Z,100.00
2022-11-10T04:41:52.754Z,100.00
2022-11-10T04:44:20.828Z,100.00
2022-11-10T04:46:49.597Z,100.00
2022-11-10T04:49:18.868Z,100.00
2022-11-10T04:51:48.563Z,100.00
2022-11-10T04:54:16.750Z,100.00
2022-11-10T04:56:44.858Z,100.00
2022-11-10T04:59:12.938Z,100.00
2022-11-10T05:01:41.139Z,100.00
2022-11-10T05:04:09.344Z,100.00
2022-11-10T05:06:37.573Z,100.00
2022-11-10T05:09:07.114Z,100.00
2022-11-10T05:11:35.397Z,100.00
2022-11-10T05:14:03.522Z,100.00
2022-11-10T05:16:31.710Z,100.00
2022-11-10T05:18:59.860Z,100.00
2022-11-10T05:21:27.991Z,100.00
2022-11-10T05:23:56.032Z,100.00
2022-11-10T05:26:25.504Z,100.00
2022-11-10T05:28:53.547Z,100.00
2022-11-10T05:31:21.792Z,100.00
2022-11-10T05:33:49.865Z,100.00
2022-11-10T05:36:17.897Z,100.00
2022-11-10T05:38:45.954Z,100.00
2022-11-10T05:41:14.159Z,100.00
2022-11-10T05:43:43.692Z,100.00
2022-11-10T05:46:11.797Z,100.00
2022-11-10T05:48:39.902Z,100.00
2022-11-10T05:51:08.150Z,100.00
2022-11-10T05:53:36.275Z,100.00
2022-11-10T05:56:04.358Z,100.00
2022-11-10T05:58:32.463Z,100.00
2022-11-10T06:01:01.999Z,100.00
2022-11-10T06:03:30.208Z,100.00
2022-11-10T06:05:58.332Z,100.00
2022-11-10T06:08:26.424Z,100.00
2022-11-10T06:10:54.886Z,100.00
2022-11-10T06:13:29.475Z,100.00
2022-11-10T06:15:57.624Z,100.00
2022-11-10T06:18:27.231Z,100.00
2022-11-10T06:20:55.288Z,100.00
2022-11-10T06:23:23.729Z,100.00
2022-11-10T06:25:51.902Z,100.00
2022-11-10T06:28:20.095Z,100.00
2022-11-10T06:30:48.138Z,100.00
2022-11-10T06:33:16.209Z,100.00
2022-11-10T06:35:46.654Z,100.00
2022-11-10T06:38:14.688Z,100.00
2022-11-10T06:40:42.847Z,100.00
2022-11-10T06:43:11.034Z,100.00
2022-11-10T06:45:39.163Z,100.00
2022-11-10T06:48:08.931Z,100.00
2022-11-10T06:50:37.302Z,100.00
2022-11-10T06:53:06.961Z,100.00
2022-11-10T06:55:35.257Z,100.00
2022-11-10T06:58:03.527Z,99.50
2022-11-10T07:00:32.138Z,100.00
2022-11-10T07:03:01.856Z,100.00
2022-11-10T07:05:30.687Z,99.84
2022-11-10T07:08:03.574Z,97.64
2022-11-10T07:10:33.089Z,98.65
2022-11-10T07:13:02.437Z,96.78
2022-11-10T07:15:30.810Z,96.72
2022-11-10T07:17:59.561Z,94.95
2022-11-10T07:20:28.570Z,94.96
2022-11-10T07:23:01.179Z,93.63
2022-11-10T07:25:32.014Z,93.34
2022-11-10T07:28:03.276Z,92.51
2022-11-10T07:30:33.571Z,93.02
2022-11-10T07:33:03.693Z,90.84
2022-11-10T07:35:32.684Z,90.55
2022-11-10T07:38:03.609Z,88.67
2022-11-10T07:40:32.047Z,88.69
2022-11-10T07:43:01.565Z,88.33
2022-11-10T07:45:30.564Z,88.22
2022-11-10T07:48:02.288Z,88.07
2022-11-10T07:50:30.822Z,86.40
2022-11-10T07:53:06.900Z,85.72
2022-11-10T07:55:35.983Z,86.78
2022-11-10T07:58:05.794Z,87.24
2022-11-10T08:00:34.561Z,85.77
2022-11-10T08:03:04.755Z,85.06
2022-11-10T08:05:33.607Z,83.37
2022-11-10T08:08:03.985Z,83.36
2022-11-10T08:10:33.509Z,81.18
2022-11-10T08:13:03.263Z,81.04
2022-11-10T08:15:34.332Z,81.79
2022-11-10T08:18:03.120Z,80.63
2022-11-10T08:20:31.752Z,79.72
2022-11-10T08:23:01.096Z,79.03
2022-11-10T08:25:34.511Z,78.87
2022-11-10T08:28:05.706Z,78.65
2022-11-10T08:30:36.431Z,78.64
2022-11-10T08:33:06.357Z,79.18
2022-11-10T08:35:37.421Z,78.91
2022-11-10T08:38:09.953Z,78.29
2022-11-10T08:40:38.948Z,78.43
2022-11-10T08:43:08.644Z,78.07
2022-11-10T08:45:39.368Z,77.80
2022-11-10T08:48:09.431Z,78.04
2022-11-10T08:50:38.106Z,77.54
2022-11-10T08:53:11.903Z,77.82
2022-11-10T08:55:40.032Z,77.47
2022-11-10T08:58:09.065Z,77.20
2022-11-10T09:00:38.551Z,77.30
2022-11-10T09:03:08.705Z,77.65
2022-11-10T09:05:37.298Z,76.97
2022-11-10T09:08:06.099Z,77.21
2022-11-10T09:10:36.191Z,77.11
2022-11-10T09:13:05.313Z,76.68
2022-11-10T09:15:35.595Z,77.29
2022-11-10T09:18:06.806Z,76.38
2022-11-10T09:20:36.531Z,76.81
2022-11-10T09:23:09.560Z,76.67
2022-11-10T09:25:38.212Z,76.29
2022-11-10T09:28:06.644Z,76.28
2022-11-10T09:30:34.775Z,77.15
2022-11-10T09:33:04.604Z,77.44
2022-11-10T09:35:32.718Z,76.97
2022-11-10T09:38:00.822Z,77.76
2022-11-10T09:40:39.878Z,77.21
2022-11-10T09:43:16.520Z,77.26
2022-11-10T09:45:48.471Z,77.88
2022-11-10T09:48:24.572Z,79.67
2022-11-10T09:50:58.396Z,76.91
2022-11-10T09:53:30.585Z,77.37
2022-11-10T09:56:03.324Z,78.19
2022-11-10T09:58:36.538Z,77.43
2022-11-10T10:01:16.567Z,78.12
2022-11-10T10:03:50.169Z,78.80
2022-11-10T10:06:20.305Z,79.58
2022-11-10T10:09:02.105Z,79.58
2022-11-10T10:11:45.040Z,79.40
2022-11-10T10:14:29.889Z,78.54
2022-11-10T10:17:06.102Z,77.68
2022-11-10T10:19:45.701Z,77.12
2022-11-10T10:22:49.297Z,78.20
2022-11-10T10:25:22.065Z,76.91
2022-11-10T10:27:58.000Z,78.01
2022-11-10T10:30:26.228Z,78.64
2022-11-10T10:32:59.323Z,78.96
2022-11-10T10:35:31.358Z,78.42
2022-11-10T10:38:00.483Z,78.15
2022-11-10T10:40:28.671Z,78.42
2022-11-10T10:42:58.808Z,78.70
2022-11-10T10:45:29.151Z,79.02
2022-11-10T10:47:58.633Z,79.60
2022-11-10T10:50:32.383Z,79.50
2022-11-10T10:53:18.283Z,78.76
2022-11-10T10:55:49.711Z,79.64
2022-11-10T10:58:24.865Z,80.08
2022-11-10T11:00:56.494Z,80.21
2022-11-10T11:03:30.398Z,80.49
2022-11-10T11:06:06.003Z,80.49
2022-11-10T11:08:34.745Z,80.53
2022-11-10T11:11:11.914Z,80.58
2022-11-10T11:13:40.245Z,80.53
2022-11-10T11:16:12.448Z,80.05
2022-11-10T11:18:41.657Z,79.62
2022-11-10T11:21:25.430Z,79.43
2022-11-10T11:24:12.145Z,79.20
2022-11-10T11:26:50.449Z,79.97
2022-11-10T11:29:31.797Z,80.97
2022-11-10T11:32:12.663Z,80.96
2022-11-10T11:34:51.302Z,81.42
2022-11-10T11:37:28.829Z,80.33
2022-11-10T11:40:15.835Z,80.53
2022-11-10T11:42:55.652Z,80.05
2022-11-10T11:45:28.926Z,79.79
2022-11-10T11:48:22.282Z,80.13
2022-11-10T11:50:55.482Z,80.19
2022-11-10T11:53:39.827Z,80.86
2022-11-10T11:56:21.049Z,80.37
2022-11-10T11:59:04.229Z,80.37
2022-11-10T12:01:58.603Z,79.51
2022-11-10T12:04:46.093Z,80.27
2022-11-10T12:07:43.162Z,79.71
2022-11-10T12:10:25.355Z,79.32
2022-11-10T12:13:07.821Z,79.42
2022-11-10T12:15:45.902Z,80.05
2022-11-10T12:18:26.126Z,80.89
2022-11-10T12:21:06.327Z,80.06
2022-11-10T12:23:47.001Z,80.90
2022-11-10T12:26:29.382Z,80.53
2022-11-10T12:29:05.284Z,80.09
2022-11-10T12:31:38.252Z,80.53
2022-11-10T12:34:15.972Z,80.30
2022-11-10T12:36:44.913Z,79.63
2022-11-10T12:39:19.902Z,79.88
2022-11-10T12:41:54.665Z,79.83
2022-11-10T12:44:29.577Z,79.80
2022-11-10T12:47:01.084Z,79.93
2022-11-10T12:49:33.906Z,80.15
2022-11-10T12:52:11.951Z,79.98
2022-11-10T12:54:42.392Z,80.80
2022-11-10T12:57:17.870Z,81.05
2022-11-10T12:59:55.858Z,81.22
2022-11-10T13:02:30.088Z,81.36
2022-11-10T13:05:21.330Z,81.92
2022-11-10T13:07:51.553Z,81.89
2022-11-10T13:10:24.860Z,82.34
2022-11-10T13:13:15.320Z,82.22
2022-11-10T13:15:55.121Z,82.13
2022-11-10T13:18:56.721Z,83.31
2022-11-10T13:22:01.842Z,82.90
2022-11-10T13:24:31.814Z,82.85
2022-11-10T13:27:00.670Z,83.08
2022-11-10T13:29:36.634Z,83.02
2022-11-10T13:32:27.836Z,83.51
2022-11-10T13:34:56.859Z,84.03
2022-11-10T13:37:53.240Z,83.84
2022-11-10T13:40:31.156Z,84.04
2022-11-10T13:43:29.343Z,84.83
2022-11-10T13:46:04.845Z,84.52
2022-11-10T13:48:51.337Z,84.20
2022-11-10T13:51:31.966Z,84.51
2022-11-10T13:54:16.928Z,84.74
2022-11-10T13:57:00.006Z,84.49
2022-11-10T13:59:31.642Z,84.76
2022-11-10T14:02:32.889Z,85.28
2022-11-10T14:05:03.644Z,85.79
2022-11-10T14:07:39.267Z,85.82
2022-11-10T14:10:14.459Z,85.74
2022-11-10T14:12:47.615Z,85.95
2022-11-10T14:15:19.788Z,86.57
2022-11-10T14:17:50.853Z,86.56
2022-11-10T14:20:30.931Z,86.82
2022-11-10T14:23:01.518Z,87.18
2022-11-10T14:25:36.339Z,87.23
2022-11-10T14:28:04.539Z,88.13
2022-11-10T14:30:33.695Z,89.01
2022-11-10T14:33:04.797Z,89.42
2022-11-10T14:35:46.363Z,90.05
2022-11-10T14:38:21.861Z,90.41
2022-11-10T14:40:50.820Z,90.95
2022-11-10T14:43:28.109Z,92.51
2022-11-10T14:45:56.360Z,92.47
2022-11-10T14:48:26.340Z,92.43
2022-11-10T14:50:56.301Z,92.88
2022-11-10T14:53:29.563Z,93.72
2022-11-10T14:55:58.280Z,95.00
2022-11-10T14:58:29.790Z,96.17
2022-11-10T15:00:58.103Z,96.87
2022-11-10T15:03:36.016Z,97.71
2022-11-10T15:06:10.599Z,98.74
2022-11-10T15:08:39.582Z,98.95
2022-11-10T15:11:08.168Z,98.77
2022-11-10T15:13:38.980Z,99.24
2022-11-10T15:16:25.492Z,99.28
2022-11-10T15:18:54.993Z,99.70
2022-11-10T15:21:30.767Z,99.58
2022-11-10T15:24:02.732Z,99.35
2022-11-10T15:26:39.461Z,99.05
2022-11-10T15:29:07.811Z,98.91
2022-11-10T15:31:36.834Z,99.35
2022-11-10T15:34:06.253Z,99.83
2022-11-10T15:36:39.663Z,100.00
2022-11-10T15:39:20.120Z,100.00
2022-11-10T15:41:50.292Z,100.00
2022-11-10T15:44:20.876Z,100.00
2022-11-10T15:46:52.244Z,100.00
2022-11-10T15:49:24.570Z,100.00
2022-11-10T15:51:58.747Z,100.00
2022-11-10T15:54:30.466Z,100.00
2022-11-10T15:56:58.594Z,100.00
2022-11-10T15:59:26.875Z,100.00
2022-11-10T16:01:55.040Z,100.00
2022-11-10T16:04:23.202Z,100.00
2022-11-10T16:06:51.273Z,100.00
2022-11-10T16:09:20.744Z,100.00
2022-11-10T16:11:48.771Z,100.00
2022-11-10T16:14:19.351Z,100.00
2022-11-10T16:16:47.513Z,100.00
2022-11-10T16:19:15.580Z,100.00
2022-11-10T16:21:43.599Z,100.00
2022-11-10T16:24:11.694Z,100.00
2022-11-10T16:26:42.277Z,100.00
2022-11-10T16:29:13.837Z,100.00
2022-11-10T16:31:42.457Z,100.00
2022-11-10T16:34:13.916Z,100.00
2022-11-10T16:36:44.058Z,100.00
2022-11-10T16:39:14.578Z,100.00
2022-11-10T16:41:44.305Z,100.00
2022-11-10T16:44:13.772Z,100.00
2022-11-10T16:46:49.703Z,100.00
2022-11-10T16:49:25.640Z,100.00
2022-11-10T16:51:53.710Z,100.00
2022-11-10T16:54:21.728Z,100.00
2022-11-10T16:56:51.179Z,100.00
2022-11-10T16:59:19.314Z,100.00
2022-11-10T17:01:48.374Z,100.00
2022-11-10T17:04:16.645Z,100.00
2022-11-10T17:06:44.993Z,100.00
2022-11-10T17:09:18.370Z,100.00
2022-11-10T17:11:46.416Z,100.00
2022-11-10T17:14:16.698Z,100.00
2022-11-10T17:16:46.531Z,100.00
2022-11-10T17:19:21.742Z,100.00
2022-11-10T17:21:51.021Z,100.00
2022-11-10T17:24:19.678Z,100.00
2022-11-10T17:26:48.633Z,100.00
2022-11-10T17:29:22.314Z,100.00
2022-11-10T17:31:51.374Z,100.00
2022-11-10T17:34:19.541Z,100.00
2022-11-10T17:36:47.749Z,100.00
2022-11-10T17:39:16.470Z,100.00
2022-11-10T17:41:44.729Z,100.00
2022-11-10T17:44:15.174Z,100.00
2022-11-10T17:46:44.965Z,100.00
2022-11-10T17:49:13.781Z,100.00
2022-11-10T17:51:41.974Z,100.00
2022-11-10T17:54:13.737Z,100.00
2022-11-10T17:56:42.036Z,100.00
2022-11-10T17:59:10.100Z,100.00
2022-11-10T18:01:38.289Z,100.00
2022-11-10T18:04:07.824Z,100.00
2022-11-10T18:06:35.925Z,100.00
2022-11-10T18:09:04.136Z,100.00
2022-11-10T18:11:32.206Z,100.00
2022-11-10T18:14:02.486Z,100.00
2022-11-10T18:16:30.507Z,100.00
2022-11-10T18:18:59.588Z,100.00
2022-11-10T18:21:29.085Z,100.00
2022-11-10T18:23:57.204Z,100.00
2022-11-10T18:26:25.298Z,100.00
2022-11-10T18:28:53.329Z,100.00
2022-11-10T18:31:21.448Z,100.00
2022-11-10T18:33:49.481Z,100.00
2022-11-10T18:36:17.701Z,100.00
2022-11-10T18:38:47.128Z,100.00
2022-11-10T18:41:32.292Z,100.00
2022-11-10T18:44:00.361Z,100.00
2022-11-10T18:46:28.587Z,100.00
2022-11-10T18:48:56.642Z,100.00
2022-11-10T18:51:24.757Z,100.00
2022-11-10T18:53:54.669Z,100.00
2022-11-10T18:56:22.803Z,100.00
2022-11-10T18:58:56.395Z,100.00
2022-11-10T19:01:25.667Z,100.00
2022-11-10T19:03:53.835Z,100.00
2022-11-10T19:06:23.141Z,100.00
2022-11-10T19:08:53.063Z,100.00
2022-11-10T19:11:21.293Z,100.00
2022-11-10T19:13:50.231Z,100.00
2022-11-10T19:16:20.049Z,100.00
2022-11-10T19:18:48.114Z,100.00
2022-11-10T19:21:18.301Z,100.00
2022-11-10T19:23:46.944Z,100.00
2022-11-10T19:26:22.236Z,100.00
2022-11-10T19:28:53.368Z,100.00
2022-11-10T19:31:22.925Z,100.00
2022-11-10T19:33:54.029Z,100.00
2022-11-10T19:36:24.099Z,100.00
2022-11-10T19:38:52.790Z,100.00
2022-11-10T19:41:24.592Z,100.00
2022-11-10T19:43:52.816Z,100.00
2022-11-10T19:46:22.812Z,100.00
2022-11-10T19:48:51.427Z,100.00
2022-11-10T19:51:20.625Z,100.00
2022-11-10T19:53:51.029Z,100.00
2022-11-10T19:56:26.309Z,100.00
2022-11-10T19:58:57.190Z,100.00
2022-11-10T20:01:26.523Z,100.00
2022-11-10T20:03:55.116Z,100.00
2022-11-10T20:06:24.072Z,100.00
2022-11-10T20:08:52.202Z,100.00
2022-11-10T20:11:25.907Z,100.00
2022-11-10T20:13:55.576Z,100.00
2022-11-10T20:16:23.967Z,100.00
2022-11-10T20:18:52.120Z,100.00
2022-11-10T20:21:23.697Z,100.00
2022-11-10T20:23:55.764Z,100.00
2022-11-10T20:26:26.209Z,100.00
2022-11-10T20:28:54.426Z,100.00
2022-11-10T20:31:24.588Z,100.00
2022-11-10T20:33:54.657Z,100.00
2022-11-10T20:36:26.014Z,100.00
2022-11-10T20:38:55.550Z,100.00
2022-11-10T20:41:28.415Z,100.00
2022-11-10T20:43:56.843Z,100.00
2022-11-10T20:46:52.933Z,100.00
2022-11-10T20:49:13.428Z,100.00
2022-11-10T20:51:41.942Z,100.00
2022-11-10T20:54:10.086Z,100.00
2022-11-10T20:56:39.552Z,100.00
2022-11-10T20:59:07.884Z,100.00
2022-11-10T21:01:37.796Z,100.00
2022-11-10T21:04:06.889Z,100.00
2022-11-10T21:06:35.045Z,100.00
2022-11-10T21:09:03.448Z,100.00
2022-11-10T21:11:49.073Z,100.00
2022-11-10T21:14:18.867Z,100.00
2022-11-10T21:16:46.940Z,100.00
2022-11-10T21:19:15.031Z,100.00
2022-11-10T21:21:43.535Z,100.00
2022-11-10T21:24:12.141Z,100.00
2022-11-10T21:26:41.378Z,100.00
2022-11-10T21:29:09.548Z,100.00
2022-11-10T21:31:39.187Z,100.00
2022-11-10T21:34:07.395Z,100.00
2022-11-10T21:36:35.520Z,100.00
2022-11-10T21:39:03.677Z,100.00
2022-11-10T21:41:32.024Z,100.00
2022-11-10T21:44:00.280Z,100.00
2022-11-10T21:46:28.483Z,100.00
2022-11-10T21:49:00.931Z,100.00
2022-11-10T21:51:31.323Z,100.00
2022-11-10T21:53:59.450Z,100.00
2022-11-10T21:56:27.656Z,100.00
2022-11-10T21:58:55.904Z,100.00
2022-11-10T22:01:24.037Z,100.00
2022-11-10T22:03:52.126Z,100.00
2022-11-10T22:06:22.434Z,100.00
2022-11-10T22:08:51.021Z,100.00
2022-11-10T22:11:38.878Z,100.00
2022-11-10T22:14:29.975Z,100.00
2022-11-10T22:17:15.256Z,100.00
2022-11-10T22:19:44.605Z,100.00
2022-11-10T22:22:15.321Z,100.00
2022-11-10T22:24:43.411Z,100.00
2022-11-10T22:27:11.546Z,100.00
2022-11-10T22:29:39.813Z,100.00
2022-11-10T22:32:07.853Z,100.00
2022-11-10T22:34:35.908Z,100.00
2022-11-10T22:37:04.110Z,100.00
2022-11-10T22:39:47.368Z,100.00
2022-11-10T22:42:38.353Z,100.00
2022-11-10T22:45:07.535Z,100.00
2022-11-10T22:47:49.491Z,100.00
2022-11-10T22:50:17.844Z,100.00
2022-11-10T22:52:45.893Z,100.00
2022-11-10T22:55:15.534Z,100.00
2022-11-10T22:57:43.629Z,100.00
2022-11-10T23:00:13.147Z,100.00
2022-11-10T23:02:41.199Z,100.00
2022-11-10T23:05:09.647Z,100.00
2022-11-10T23:07:37.728Z,100.00
2022-11-10T23:10:06.647Z,100.00
2022-11-10T23:12:36.104Z,100.00
2022-11-10T23:15:04.237Z,100.00
2022-11-10T23:17:32.468Z,100.00
2022-11-10T23:20:00.504Z,100.00
2022-11-10T23:22:29.399Z,100.00
2022-11-10T23:24:57.724Z,100.00
2022-11-10T23:27:25.992Z,100.00
2022-11-10T23:29:55.526Z,100.00
2022-11-10T23:32:23.574Z,100.00
2022-11-10T23:34:51.638Z,100.00
2022-11-10T23:37:21.107Z,100.00
2022-11-10T23:39:49.235Z,100.00
2022-11-10T23:42:17.314Z,100.00
2022-11-10T23:44:45.371Z,100.00
2022-11-10T23:47:14.805Z,100.00
2022-11-10T23:49:42.981Z,100.00
2022-11-10T23:52:11.040Z,100.00
2022-11-10T23:54:39.199Z,100.00
2022-11-10T23:57:08.526Z,100.00
2022-11-10T23:59:36.595Z,100.00
